Time;durP1;ratioP1;P1;durP2;ratioP2;P2;SDS_P1;SDS_P2;PMS_P1;PMS_P2;Temp;Humidity;BMP_temperature;BMP_pressure;BME280_temperature;BME280_humidity;BME280_pressure;Samples;Min_cycle;Max_cycle;Signal;HPM_P1;HPM_P2
2024/04/20 00:02:04;;;;;;;9.98;2.85;;;;;;;;;;5453790;26;20005;-78
2024/04/20 00:04:49;;;;;;;6.60;1.90;;;;;;;;;;5453295;26;19999;-78
2024/04/20 00:07:35;;;;;;;11.95;2.20;;;;;;;;;;5452945;26;20005;-79
2024/04/20 00:10:46;;;;;;;7.75;1.77;;;;;;;;;;5479381;26;20205;-78
2024/04/20 00:13:31;;;;;;;9.48;2.50;;;;;;;;;;5452553;26;20384;-79
2024/04/20 00:16:18;;;;;;;7.80;1.70;;;;;;;;;;5454040;26;19998;-78
2024/04/20 00:19:21;;;;;;;5.53;2.05;;;;;;;;;;5453748;26;19998;-78
2024/04/20 00:22:06;;;;;;;6.47;2.38;;;;;;;;;;5453290;26;19998;-78
2024/04/20 00:24:50;;;;;;;5.55;1.92;;;;;;;;;;5487736;26;20009;-79
2024/04/20 00:27:36;;;;;;;8.20;2.55;;;;;;;;;;5491113;26;20022;-77
2024/04/20 00:30:20;;;;;;;8.82;3.20;;;;;;;;;;5514288;26;20012;-79
2024/04/20 00:33:05;;;;;;;4.72;1.75;;;;;;;;;;5489254;26;20007;-78
2024/04/20 00:35:50;;;;;;;6.07;2.30;;;;;;;;;;5489919;26;20005;-78
2024/04/20 00:38:35;;;;;;;10.73;2.47;;;;;;;;;;5489452;26;20448;-78
2024/04/20 00:41:21;;;;;;;8.43;2.10;;;;;;;;;;5465494;26;20006;-78
2024/04/20 00:44:08;;;;;;;10.02;2.85;;;;;;;;;;5453061;26;20005;-78
2024/04/20 00:46:54;;;;;;;4.93;2.25;;;;;;;;;;5480200;26;20547;-78
2024/04/20 00:49:38;;;;;;;4.97;2.38;;;;;;;;;;5498007;26;20442;-78
2024/04/20 00:52:24;;;;;;;6.18;1.95;;;;;;;;;;5488581;26;19993;-80
2024/04/20 00:55:09;;;;;;;6.25;2.70;;;;;;;;;;5489278;26;20324;-80
2024/04/20 00:57:57;;;;;;;6.97;1.77;;;;;;;;;;5488843;26;20001;-80
2024/04/20 01:00:42;;;;;;;7.13;1.80;;;;;;;;;;5488839;26;20065;-79
2024/04/20 01:03:28;;;;;;;8.05;2.65;;;;;;;;;;5488870;26;19997;-79
2024/04/20 01:06:13;;;;;;;9.57;2.63;;;;;;;;;;5488363;26;20005;-80
2024/04/20 01:08:58;;;;;;;7.60;1.90;;;;;;;;;;5488357;26;20546;-81
2024/04/20 01:11:44;;;;;;;7.57;1.63;;;;;;;;;;5488339;26;20017;-79
2024/04/20 01:14:29;;;;;;;7.45;1.75;;;;;;;;;;5488242;26;20037;-80
2024/04/20 01:17:14;;;;;;;13.13;2.47;;;;;;;;;;5488442;26;20199;-79
2024/04/20 01:19:59;;;;;;;8.82;2.35;;;;;;;;;;5488763;26;19997;-80
2024/04/20 01:22:45;;;;;;;7.80;1.67;;;;;;;;;;5487969;26;20008;-79
2024/04/20 01:25:31;;;;;;;7.22;2.13;;;;;;;;;;5487881;26;20007;-79
2024/04/20 01:28:17;;;;;;;11.25;1.92;;;;;;;;;;5462651;26;20073;-79
2024/04/20 01:31:02;;;;;;;4.10;1.55;;;;;;;;;;5488101;26;19994;-80
2024/04/20 01:33:47;;;;;;;6.10;1.80;;;;;;;;;;5487782;26;20069;-79
2024/04/20 01:36:33;;;;;;;5.78;1.98;;;;;;;;;;5480407;26;20053;-79
2024/04/20 01:39:18;;;;;;;14.27;2.53;;;;;;;;;;5466797;26;20004;-79
2024/04/20 01:42:03;;;;;;;8.65;1.80;;;;;;;;;;5491757;26;20057;-79
2024/04/20 01:44:49;;;;;;;7.32;1.77;;;;;;;;;;5491247;26;20324;-79
2024/04/20 01:47:34;;;;;;;5.53;2.08;;;;;;;;;;5491160;26;19993;-79
2024/04/20 01:50:19;;;;;;;7.15;1.95;;;;;;;;;;5491918;26;19994;-79
2024/04/20 01:53:05;;;;;;;4.70;2.20;;;;;;;;;;5491201;26;20017;-79
2024/04/20 01:55:50;;;;;;;9.02;2.47;;;;;;;;;;5490615;26;19993;-80
2024/04/20 01:58:35;;;;;;;4.93;2.33;;;;;;;;;;5462668;26;20006;-77
2024/04/20 02:01:20;;;;;;;9.35;1.95;;;;;;;;;;5456317;26;19994;-78
2024/04/20 02:04:05;;;;;;;7.07;2.13;;;;;;;;;;5458706;26;20005;-78
2024/04/20 02:06:51;;;;;;;11.85;1.85;;;;;;;;;;5458241;26;19994;-82
2024/04/20 02:09:36;;;;;;;3.83;1.48;;;;;;;;;;5477923;26;20070;-78
2024/04/20 02:12:21;;;;;;;7.88;2.00;;;;;;;;;;5494696;26;20061;-78
2024/04/20 02:15:06;;;;;;;6.20;1.95;;;;;;;;;;5494359;26;20005;-78
2024/04/20 02:17:51;;;;;;;8.45;2.53;;;;;;;;;;5494574;26;20026;-79
2024/04/20 02:20:37;;;;;;;10.55;2.47;;;;;;;;;;5494674;26;19993;-80
2024/04/20 02:23:25;;;;;;;4.93;1.65;;;;;;;;;;5494924;26;20000;-80
2024/04/20 02:26:10;;;;;;;7.90;2.17;;;;;;;;;;5494480;26;20423;-80
2024/04/20 02:28:56;;;;;;;6.55;1.95;;;;;;;;;;5494474;26;20001;-80
2024/04/20 02:31:41;;;;;;;9.05;1.60;;;;;;;;;;5494713;26;20012;-79
2024/04/20 02:34:26;;;;;;;12.60;3.03;;;;;;;;;;5462363;26;19994;-79
2024/04/20 02:37:11;;;;;;;6.47;1.98;;;;;;;;;;5457588;26;20031;-79
2024/04/20 02:39:57;;;;;;;8.98;1.90;;;;;;;;;;5482618;26;19997;-79
2024/04/20 02:42:42;;;;;;;6.18;2.15;;;;;;;;;;5494872;26;20073;-79
2024/04/20 02:45:27;;;;;;;9.32;2.45;;;;;;;;;;5494296;26;19997;-79
2024/04/20 02:48:12;;;;;;;8.35;2.38;;;;;;;;;;5494360;26;19998;-79
2024/04/20 02:50:58;;;;;;;5.40;1.60;;;;;;;;;;5493785;26;20010;-78
2024/04/20 02:53:43;;;;;;;6.38;2.15;;;;;;;;;;5494102;26;20092;-80
2024/04/20 02:56:28;;;;;;;6.35;1.70;;;;;;;;;;5493773;26;20401;-78
2024/04/20 02:59:13;;;;;;;7.15;2.00;;;;;;;;;;5493780;26;20041;-78
2024/04/20 03:01:58;;;;;;;7.32;2.15;;;;;;;;;;5492409;26;20013;-78
2024/04/20 03:04:44;;;;;;;10.48;2.47;;;;;;;;;;5429873;26;20002;-78
2024/04/20 03:07:29;;;;;;;7.18;2.00;;;;;;;;;;5453392;26;19999;-79
2024/04/20 03:10:14;;;;;;;6.43;1.83;;;;;;;;;;5483200;26;20002;-78
2024/04/20 03:12:59;;;;;;;9.82;2.20;;;;;;;;;;5490247;26;20029;-78
2024/04/20 03:15:45;;;;;;;5.20;1.80;;;;;;;;;;5490164;26;20002;-78
2024/04/20 03:18:32;;;;;;;6.20;1.90;;;;;;;;;;5487260;26;20009;-77
2024/04/20 03:21:18;;;;;;;4.18;1.77;;;;;;;;;;5454321;26;20028;-80
2024/04/20 03:24:04;;;;;;;8.00;1.92;;;;;;;;;;5454550;26;20051;-78
2024/04/20 03:26:49;;;;;;;5.65;2.33;;;;;;;;;;5453524;26;20440;-78
2024/04/20 03:29:34;;;;;;;12.20;4.25;;;;;;;;;;5465649;26;20409;-80
2024/04/20 03:32:19;;;;;;;13.73;3.75;;;;;;;;;;5490459;26;20073;-81
2024/04/20 03:35:05;;;;;;;5.88;2.38;;;;;;;;;;5490243;26;20009;-80
2024/04/20 03:37:50;;;;;;;7.78;2.55;;;;;;;;;;5490052;26;19997;-80
2024/04/20 03:40:35;;;;;;;9.80;2.25;;;;;;;;;;5489409;26;20012;-79
2024/04/20 03:43:21;;;;;;;8.38;2.30;;;;;;;;;;5489978;26;20017;-80
2024/04/20 03:46:06;;;;;;;6.68;2.30;;;;;;;;;;5464724;26;20017;-79
2024/04/20 03:48:51;;;;;;;5.03;1.88;;;;;;;;;;5489806;26;20036;-79
2024/04/20 03:51:36;;;;;;;8.77;2.22;;;;;;;;;;5490105;26;20408;-78
2024/04/20 03:54:21;;;;;;;7.45;2.50;;;;;;;;;;5489524;26;20008;-78
2024/04/20 03:57:07;;;;;;;7.90;2.17;;;;;;;;;;5489367;26;20330;-79
2024/04/20 03:59:52;;;;;;;10.93;2.50;;;;;;;;;;5463908;26;20073;-79
2024/04/20 04:02:38;;;;;;;9.88;2.35;;;;;;;;;;5488949;26;19997;-79
2024/04/20 04:05:23;;;;;;;4.93;1.67;;;;;;;;;;5489511;26;20033;-79
2024/04/20 04:08:08;;;;;;;9.13;2.38;;;;;;;;;;5463586;26;20110;-79
2024/04/20 04:10:56;;;;;;;9.43;2.33;;;;;;;;;;5489405;26;20073;-80
2024/04/20 04:13:42;;;;;;;6.80;1.98;;;;;;;;;;5490288;26;20016;-79
2024/04/20 04:16:28;;;;;;;4.10;1.58;;;;;;;;;;5489884;26;20407;-79
2024/04/20 04:19:13;;;;;;;6.93;3.05;;;;;;;;;;5489361;26;20005;-79
2024/04/20 04:21:59;;;;;;;6.93;2.20;;;;;;;;;;5488841;26;20456;-78
2024/04/20 04:24:44;;;;;;;7.07;2.17;;;;;;;;;;5489333;26;20053;-78
2024/04/20 04:27:29;;;;;;;10.77;2.47;;;;;;;;;;5477365;26;20371;-79
2024/04/20 04:30:15;;;;;;;9.85;2.45;;;;;;;;;;5477938;26;20002;-79
2024/04/20 04:33:00;;;;;;;11.52;3.10;;;;;;;;;;5453093;26;20002;-79
2024/04/20 04:35:45;;;;;;;6.43;1.98;;;;;;;;;;5453249;26;20006;-80
2024/04/20 04:38:30;;;;;;;12.90;3.80;;;;;;;;;;5455845;26;20026;-80
2024/04/20 04:41:16;;;;;;;11.45;2.67;;;;;;;;;;5476554;26;19998;-81
2024/04/20 04:44:01;;;;;;;4.72;1.70;;;;;;;;;;5460580;26;19995;-80
2024/04/20 04:46:46;;;;;;;5.93;2.30;;;;;;;;;;5452989;26;20028;-80
2024/04/20 04:49:32;;;;;;;6.93;2.47;;;;;;;;;;5452373;26;19990;-80
2024/04/20 04:52:17;;;;;;;10.40;2.55;;;;;;;;;;5451860;26;19990;-80
2024/04/20 04:55:02;;;;;;;10.20;2.47;;;;;;;;;;5452966;26;20385;-79
2024/04/20 04:57:48;;;;;;;13.68;2.50;;;;;;;;;;5452061;26;20042;-80
2024/04/20 05:00:33;;;;;;;11.35;1.95;;;;;;;;;;5452216;26;20358;-80
2024/04/20 05:03:18;;;;;;;6.88;1.90;;;;;;;;;;5452283;26;20333;-80
2024/04/20 05:06:04;;;;;;;9.18;2.13;;;;;;;;;;5452318;26;20006;-80
2024/04/20 05:08:49;;;;;;;5.50;1.75;;;;;;;;;;5459592;26;20309;-80
2024/04/20 05:11:34;;;;;;;3.85;1.30;;;;;;;;;;5488003;26;20005;-80
2024/04/20 05:14:20;;;;;;;7.10;2.05;;;;;;;;;;5488367;26;20528;-79
2024/04/20 05:17:05;;;;;;;5.07;2.08;;;;;;;;;;5492291;26;20478;-80
2024/04/20 05:19:51;;;;;;;2.78;1.60;;;;;;;;;;5491934;26;19998;-80
2024/04/20 05:22:36;;;;;;;6.50;2.17;;;;;;;;;;5468190;26;20517;-79
2024/04/20 05:25:21;;;;;;;7.95;2.72;;;;;;;;;;5456259;26;20428;-80
2024/04/20 05:28:07;;;;;;;5.47;2.15;;;;;;;;;;5455721;26;19994;-78
2024/04/20 05:30:52;;;;;;;10.07;2.97;;;;;;;;;;5455113;26;20057;-78
2024/04/20 05:33:37;;;;;;;9.80;2.67;;;;;;;;;;5455590;26;20378;-78
2024/04/20 05:36:22;;;;;;;13.07;2.60;;;;;;;;;;5455694;26;20009;-78
2024/04/20 05:39:08;;;;;;;4.57;1.67;;;;;;;;;;5467271;26;20039;-77
2024/04/20 05:41:53;;;;;;;6.15;1.95;;;;;;;;;;5469088;26;20005;-79
2024/04/20 05:44:39;;;;;;;13.50;2.05;;;;;;;;;;5455454;26;19994;-79
2024/04/20 05:47:24;;;;;;;4.72;1.92;;;;;;;;;;5455098;26;20004;-78
2024/04/20 05:50:09;;;;;;;6.97;2.40;;;;;;;;;;5454852;26;19994;-79
2024/04/20 05:52:54;;;;;;;7.57;1.92;;;;;;;;;;5455162;26;20010;-80
2024/04/20 05:55:40;;;;;;;4.93;1.55;;;;;;;;;;5455665;26;20453;-79
2024/04/20 05:58:25;;;;;;;7.97;1.50;;;;;;;;;;5488264;25;20456;-80
2024/04/20 06:01:12;;;;;;;5.57;1.70;;;;;;;;;;5527396;25;20518;-80
2024/04/20 06:03:58;;;;;;;5.70;1.65;;;;;;;;;;5512003;26;19994;-79
2024/04/20 06:06:43;;;;;;;8.88;1.65;;;;;;;;;;5491745;26;19998;-79
2024/04/20 06:09:28;;;;;;;9.05;1.67;;;;;;;;;;5490811;26;20088;-80
2024/04/20 06:12:13;;;;;;;4.50;1.88;;;;;;;;;;5490971;26;19993;-78
2024/04/20 06:14:59;;;;;;;2.88;1.60;;;;;;;;;;5491143;26;19990;-79
2024/04/20 06:17:44;;;;;;;4.35;1.50;;;;;;;;;;5461148;26;19993;-80
2024/04/20 06:20:29;;;;;;;6.35;1.85;;;;;;;;;;5490686;26;19989;-79
2024/04/20 06:23:14;;;;;;;6.60;1.65;;;;;;;;;;5491102;26;20001;-80
2024/04/20 06:25:59;;;;;;;5.90;1.80;;;;;;;;;;5490761;26;20042;-79
2024/04/20 06:28:45;;;;;;;4.78;1.63;;;;;;;;;;5491364;26;19994;-79
2024/04/20 06:31:30;;;;;;;5.20;1.83;;;;;;;;;;5490759;26;19989;-79
2024/04/20 06:34:15;;;;;;;5.25;2.25;;;;;;;;;;5466273;26;20005;-79
2024/04/20 06:37:00;;;;;;;4.25;1.55;;;;;;;;;;5491024;26;19997;-80
2024/04/20 06:39:46;;;;;;;3.88;1.65;;;;;;;;;;5492753;25;20025;-78
2024/04/20 06:42:32;;;;;;;2.63;1.50;;;;;;;;;;5513492;25;19997;-78
2024/04/20 06:45:17;;;;;;;4.47;1.88;;;;;;;;;;5522888;25;20012;-79
2024/04/20 06:48:02;;;;;;;4.65;1.58;;;;;;;;;;5475636;26;19998;-78
2024/04/20 06:50:47;;;;;;;3.80;1.50;;;;;;;;;;5490137;26;20008;-78
2024/04/20 06:53:33;;;;;;;6.30;2.03;;;;;;;;;;5460239;26;20008;-78
2024/04/20 06:56:18;;;;;;;2.47;1.45;;;;;;;;;;5490082;26;19994;-77
2024/04/20 06:59:03;;;;;;;7.10;1.90;;;;;;;;;;5489918;26;20376;-77
2024/04/20 07:01:48;;;;;;;4.25;1.50;;;;;;;;;;5490274;26;19993;-77
2024/04/20 07:04:33;;;;;;;5.72;2.08;;;;;;;;;;5498270;25;19994;-77
2024/04/20 07:07:19;;;;;;;9.48;3.78;;;;;;;;;;5518811;25;20013;-80
2024/04/20 07:10:04;;;;;;;5.45;1.77;;;;;;;;;;5478697;26;19998;-79
2024/04/20 07:12:49;;;;;;;4.65;1.95;;;;;;;;;;5480206;26;19998;-79
2024/04/20 07:15:35;;;;;;;5.13;1.73;;;;;;;;;;5472699;26;19995;-78
2024/04/20 07:18:20;;;;;;;4.13;1.77;;;;;;;;;;5503582;25;19993;-78
2024/04/20 07:21:06;;;;;;;4.85;2.05;;;;;;;;;;5497655;25;20002;-78
2024/04/20 07:23:51;;;;;;;4.13;1.55;;;;;;;;;;5511664;25;20002;-80
2024/04/20 07:26:37;;;;;;;6.63;1.83;;;;;;;;;;5505576;25;20064;-79
2024/04/20 07:29:22;;;;;;;6.18;1.90;;;;;;;;;;5515272;25;20025;-80
2024/04/20 07:32:07;;;;;;;5.15;2.05;;;;;;;;;;5505488;25;20005;-79
2024/04/20 07:34:53;;;;;;;5.65;2.35;;;;;;;;;;5493278;25;20388;-80
2024/04/20 07:37:38;;;;;;;4.40;1.90;;;;;;;;;;5496077;25;20455;-79
2024/04/20 07:40:25;;;;;;;3.53;1.67;;;;;;;;;;5487121;25;20451;-79
2024/04/20 07:43:10;;;;;;;3.65;1.83;;;;;;;;;;5505258;25;20323;-79
2024/04/20 07:45:55;;;;;;;5.75;2.83;;;;;;;;;;5484093;25;20004;-79
2024/04/20 07:48:41;;;;;;;4.57;2.10;;;;;;;;;;5513610;25;20012;-79
2024/04/20 07:51:26;;;;;;;10.50;2.83;;;;;;;;;;5509807;26;20393;-79
2024/04/20 07:54:11;;;;;;;5.30;2.00;;;;;;;;;;5496457;25;20056;-79
2024/04/20 07:56:57;;;;;;;8.15;3.08;;;;;;;;;;5475156;26;20016;-78
2024/04/20 07:59:42;;;;;;;6.50;2.00;;;;;;;;;;5452989;26;20446;-78
2024/04/20 08:02:27;;;;;;;5.45;2.30;;;;;;;;;;5487038;26;20004;-77
2024/04/20 08:05:13;;;;;;;7.25;2.42;;;;;;;;;;5517574;25;19989;-77
2024/04/20 08:07:58;;;;;;;12.20;2.92;;;;;;;;;;5500558;25;20060;-77
2024/04/20 08:10:43;;;;;;;7.15;3.08;;;;;;;;;;5504895;25;20345;-77
2024/04/20 08:13:30;;;;;;;9.07;2.63;;;;;;;;;;5502615;25;20008;-77
2024/04/20 08:16:22;;;;;;;3.90;2.05;;;;;;;;;;5498822;26;20008;-78
2024/04/20 08:19:07;;;;;;;4.65;2.15;;;;;;;;;;5483687;25;20023;-79
2024/04/20 08:21:52;;;;;;;5.82;2.70;;;;;;;;;;5487217;26;20070;-76
2024/04/20 08:24:37;;;;;;;6.68;1.98;;;;;;;;;;5496910;25;19997;-79
2024/04/20 08:27:23;;;;;;;6.85;2.10;;;;;;;;;;5500652;25;20007;-79
2024/04/20 08:30:08;;;;;;;4.95;2.28;;;;;;;;;;5516767;25;20013;-79
2024/04/20 08:32:54;;;;;;;8.57;1.77;;;;;;;;;;5493259;25;20025;-79
2024/04/20 08:35:39;;;;;;;1.77;1.67;;;;;;;;;;5512328;25;20019;-79
2024/04/20 08:38:28;;;;;;;5.10;2.47;;;;;;;;;;5503421;25;19993;-79
2024/04/20 08:41:16;;;;;;;3.35;1.70;;;;;;;;;;5493695;25;20016;-79
2024/04/20 08:44:03;;;;;;;4.18;2.22;;;;;;;;;;5499430;25;19997;-79
2024/04/20 08:46:51;;;;;;;3.45;1.80;;;;;;;;;;5497341;25;20020;-79
2024/04/20 08:49:36;;;;;;;3.08;1.80;;;;;;;;;;5499874;25;20004;-79
2024/04/20 08:52:22;;;;;;;7.30;2.40;;;;;;;;;;5508629;26;20001;-79
2024/04/20 08:55:08;;;;;;;3.15;2.00;;;;;;;;;;5488142;26;20005;-80
2024/04/20 08:57:53;;;;;;;4.85;2.00;;;;;;;;;;5524749;25;20068;-79
2024/04/20 09:00:40;;;;;;;6.95;2.13;;;;;;;;;;5517533;25;20013;-79
2024/04/20 09:03:26;;;;;;;7.00;2.38;;;;;;;;;;5491846;26;19998;-77
2024/04/20 09:06:12;;;;;;;2.75;1.70;;;;;;;;;;5485767;25;19989;-77
2024/04/20 09:08:57;;;;;;;4.13;2.40;;;;;;;;;;5519549;25;20426;-78
2024/04/20 09:11:42;;;;;;;7.93;2.15;;;;;;;;;;5503757;26;20048;-77
2024/04/20 09:14:29;;;;;;;3.47;1.80;;;;;;;;;;5458540;26;20463;-76
2024/04/20 09:17:14;;;;;;;10.90;2.40;;;;;;;;;;5487828;25;20009;-77
2024/04/20 09:20:00;;;;;;;4.32;2.17;;;;;;;;;;5508033;26;20103;-78
2024/04/20 09:22:45;;;;;;;7.65;2.42;;;;;;;;;;5502465;25;20012;-76
2024/04/20 09:25:30;;;;;;;5.55;2.67;;;;;;;;;;5493906;25;20001;-77
2024/04/20 09:28:16;;;;;;;9.13;2.67;;;;;;;;;;5510945;25;20381;-75
2024/04/20 09:31:02;;;;;;;3.65;2.25;;;;;;;;;;5451139;26;20447;-75
2024/04/20 09:33:47;;;;;;;4.43;2.35;;;;;;;;;;5505689;25;20013;-76
2024/04/20 09:36:33;;;;;;;7.60;2.53;;;;;;;;;;5495713;25;20011;-76
2024/04/20 09:39:19;;;;;;;5.68;2.28;;;;;;;;;;5498314;26;19997;-76
2024/04/20 09:42:06;;;;;;;5.00;2.42;;;;;;;;;;5487390;26;20632;-77
2024/04/20 09:44:53;;;;;;;6.15;1.70;;;;;;;;;;5487606;26;20047;-78
2024/04/20 09:47:39;;;;;;;5.65;2.20;;;;;;;;;;5488133;25;20068;-81
2024/04/20 09:51:04;;;;;;;7.13;3.25;;;;;;;;;;5444341;26;20078;-78
2024/04/20 09:53:50;;;;;;;6.93;2.25;;;;;;;;;;5451042;26;20075;-78
2024/04/20 09:56:35;;;;;;;3.47;1.92;;;;;;;;;;5450565;26;20013;-79
2024/04/20 09:59:21;;;;;;;4.00;2.17;;;;;;;;;;5450631;26;20469;-80
2024/04/20 10:02:07;;;;;;;3.92;2.05;;;;;;;;;;5453906;26;20002;-80
2024/04/20 10:04:58;;;;;;;2.13;1.80;;;;;;;;;;5455177;26;19998;-80
2024/04/20 10:07:47;;;;;;;4.10;2.28;;;;;;;;;;5455393;26;20010;-79
2024/04/20 10:10:33;;;;;;;2.88;1.98;;;;;;;;;;5488467;26;20008;-78
2024/04/20 10:13:19;;;;;;;3.40;2.05;;;;;;;;;;5490054;26;20586;-79
2024/04/20 10:16:05;;;;;;;5.95;2.40;;;;;;;;;;5491435;26;20400;-77
2024/04/20 10:18:50;;;;;;;3.95;2.20;;;;;;;;;;5491283;26;20364;-79
2024/04/20 10:21:36;;;;;;;5.30;2.30;;;;;;;;;;5490253;26;20126;-79
2024/04/20 10:24:21;;;;;;;6.60;2.60;;;;;;;;;;5490443;26;19993;-78
2024/04/20 10:27:06;;;;;;;4.43;2.58;;;;;;;;;;5490828;26;20496;-78
2024/04/20 10:29:52;;;;;;;7.75;1.90;;;;;;;;;;5490872;26;20008;-77
2024/04/20 10:32:37;;;;;;;2.85;2.13;;;;;;;;;;5490540;26;20493;-77
2024/04/20 10:35:22;;;;;;;4.15;1.88;;;;;;;;;;5491031;26;20438;-79
2024/04/20 10:38:08;;;;;;;4.03;2.30;;;;;;;;;;5490461;26;20359;-78
2024/04/20 10:40:53;;;;;;;6.32;2.30;;;;;;;;;;5479636;26;19998;-78
2024/04/20 10:43:39;;;;;;;8.25;1.85;;;;;;;;;;5453826;26;20005;-78
2024/04/20 10:46:24;;;;;;;2.92;1.88;;;;;;;;;;5453522;26;20034;-80
2024/04/20 10:49:10;;;;;;;4.78;2.22;;;;;;;;;;5479738;26;20002;-79
2024/04/20 10:51:56;;;;;;;6.78;2.00;;;;;;;;;;5479311;26;20078;-80
2024/04/20 10:54:41;;;;;;;5.97;2.20;;;;;;;;;;5448301;26;20005;-81
2024/04/20 10:57:28;;;;;;;6.10;2.38;;;;;;;;;;5453937;26;20090;-79
2024/04/20 11:00:17;;;;;;;3.42;2.10;;;;;;;;;;5493344;26;20282;-79
2024/04/20 11:03:03;;;;;;;6.15;2.40;;;;;;;;;;5453904;26;20009;-79
2024/04/20 11:05:56;;;;;;;4.88;2.47;;;;;;;;;;5429089;26;19998;-79
2024/04/20 11:08:46;;;;;;;9.20;2.88;;;;;;;;;;5459838;26;20058;-81
2024/04/20 11:11:32;;;;;;;2.92;2.00;;;;;;;;;;5490465;26;20046;-79
2024/04/20 11:14:17;;;;;;;5.47;2.42;;;;;;;;;;5490188;26;20008;-79
2024/04/20 11:17:03;;;;;;;7.25;1.88;;;;;;;;;;5489893;26;20001;-79
2024/04/20 11:19:48;;;;;;;2.05;1.50;;;;;;;;;;5489744;26;20001;-79
2024/04/20 11:22:33;;;;;;;3.10;1.85;;;;;;;;;;5489736;26;20041;-79
2024/04/20 11:25:18;;;;;;;3.38;1.70;;;;;;;;;;5489577;26;20073;-79
2024/04/20 11:28:04;;;;;;;5.93;1.98;;;;;;;;;;5490127;26;19997;-78
2024/04/20 11:30:49;;;;;;;2.40;1.77;;;;;;;;;;5489580;26;20009;-78
2024/04/20 11:33:35;;;;;;;5.28;1.85;;;;;;;;;;5490005;26;19997;-77
2024/04/20 11:36:20;;;;;;;6.43;2.10;;;;;;;;;;5489351;26;20009;-78
2024/04/20 11:39:11;;;;;;;4.43;2.20;;;;;;;;;;5489703;26;20089;-78
2024/04/20 11:42:04;;;;;;;5.28;2.78;;;;;;;;;;5489829;26;20001;-78
2024/04/20 11:44:49;;;;;;;3.83;1.77;;;;;;;;;;5489708;26;20444;-79
2024/04/20 11:47:34;;;;;;;4.72;1.90;;;;;;;;;;5489875;26;20045;-78
2024/04/20 11:50:20;;;;;;;5.28;1.77;;;;;;;;;;5488935;26;20043;-78
2024/04/20 11:56:26;;;;;;;5.28;2.17;;;;;;;;;;5379426;26;19999;-78
2024/04/20 11:59:11;;;;;;;4.95;2.67;;;;;;;;;;5478739;26;19998;-78
2024/04/20 12:01:57;;;;;;;3.22;1.98;;;;;;;;;;5468724;26;20002;-79
2024/04/20 12:04:42;;;;;;;6.50;2.75;;;;;;;;;;5452371;26;20349;-79
2024/04/20 12:07:27;;;;;;;6.32;2.05;;;;;;;;;;5452618;26;20464;-79
2024/04/20 12:10:13;;;;;;;6.32;2.60;;;;;;;;;;5481985;26;20012;-79
2024/04/20 12:12:59;;;;;;;4.07;1.92;;;;;;;;;;5489456;26;20011;-78
2024/04/20 12:15:44;;;;;;;3.78;2.22;;;;;;;;;;5491807;26;20423;-78
2024/04/20 12:18:30;;;;;;;5.97;2.30;;;;;;;;;;5490544;26;20070;-79
2024/04/20 12:21:16;;;;;;;3.38;2.00;;;;;;;;;;5489315;26;20001;-79
2024/04/20 12:24:02;;;;;;;5.78;1.90;;;;;;;;;;5488211;26;20006;-78
2024/04/20 12:26:47;;;;;;;5.03;1.90;;;;;;;;;;5488057;26;20009;-79
2024/04/20 12:29:32;;;;;;;5.30;1.90;;;;;;;;;;5489374;26;19997;-78
2024/04/20 12:32:17;;;;;;;5.40;1.92;;;;;;;;;;5489330;26;19993;-78
2024/04/20 12:35:03;;;;;;;2.80;1.95;;;;;;;;;;5488922;26;20009;-78
2024/04/20 12:37:48;;;;;;;4.18;2.53;;;;;;;;;;5489257;26;20091;-79
2024/04/20 12:40:33;;;;;;;6.53;2.60;;;;;;;;;;5489114;26;20030;-78
2024/04/20 12:43:19;;;;;;;3.10;1.90;;;;;;;;;;5488235;26;20001;-78
2024/04/20 12:46:04;;;;;;;4.50;1.38;;;;;;;;;;5488765;26;19998;-78
2024/04/20 12:48:49;;;;;;;3.58;1.65;;;;;;;;;;5488768;26;20012;-78
2024/04/20 12:51:35;;;;;;;3.33;1.77;;;;;;;;;;5480451;26;20453;-79
2024/04/20 12:54:20;;;;;;;3.85;1.58;;;;;;;;;;5452303;26;20996;-78
2024/04/20 12:57:05;;;;;;;6.32;2.35;;;;;;;;;;5451649;26;20703;-78
2024/04/20 12:59:50;;;;;;;3.72;1.50;;;;;;;;;;5452265;26;20002;-78
2024/04/20 13:02:35;;;;;;;4.10;1.70;;;;;;;;;;5451566;26;20375;-78
2024/04/20 13:05:21;;;;;;;3.25;1.70;;;;;;;;;;5451500;26;20009;-77
2024/04/20 13:08:07;;;;;;;6.78;1.92;;;;;;;;;;5451814;26;20006;-77
2024/04/20 13:11:07;;;;;;;2.95;1.63;;;;;;;;;;5451654;26;20002;-78
2024/04/20 13:13:58;;;;;;;1.65;1.33;;;;;;;;;;5452223;26;20449;-77
2024/04/20 13:16:43;;;;;;;3.75;1.63;;;;;;;;;;5451115;26;20468;-79
2024/04/20 13:19:28;;;;;;;2.60;1.30;;;;;;;;;;5451690;26;20336;-79
2024/04/20 13:22:14;;;;;;;1.55;1.20;;;;;;;;;;5452263;26;20397;-79
2024/04/20 13:24:59;;;;;;;2.15;1.13;;;;;;;;;;5451636;26;20438;-79
2024/04/20 13:27:44;;;;;;;1.23;1.10;;;;;;;;;;5451593;26;19998;-78
2024/04/20 13:30:30;;;;;;;2.30;1.30;;;;;;;;;;5451440;26;19998;-79
2024/04/20 13:33:15;;;;;;;3.38;1.40;;;;;;;;;;5477471;26;20002;-79
2024/04/20 13:36:00;;;;;;;2.42;1.23;;;;;;;;;;5476962;26;19999;-79
2024/04/20 13:38:46;;;;;;;2.10;1.27;;;;;;;;;;5462345;26;20001;-78
2024/04/20 13:41:34;;;;;;;3.17;2.03;;;;;;;;;;5491865;26;20001;-79
2024/04/20 13:44:19;;;;;;;2.90;1.50;;;;;;;;;;5484195;26;20070;-79
2024/04/20 13:47:04;;;;;;;2.58;1.50;;;;;;;;;;5494264;26;20000;-81
2024/04/20 13:49:50;;;;;;;1.60;1.27;;;;;;;;;;5472224;26;20073;-80
2024/04/20 13:52:35;;;;;;;2.90;1.35;;;;;;;;;;5502276;26;19994;-80
2024/04/20 13:55:20;;;;;;;2.80;1.63;;;;;;;;;;5505634;26;20007;-77
2024/04/20 13:58:06;;;;;;;4.22;1.40;;;;;;;;;;5472273;26;20016;-77
2024/04/20 14:00:52;;;;;;;3.15;1.52;;;;;;;;;;5485580;26;20287;-76
2024/04/20 14:03:37;;;;;;;4.72;1.40;;;;;;;;;;5492190;26;20401;-76
2024/04/20 14:06:23;;;;;;;4.70;1.77;;;;;;;;;;5493660;26;20016;-76
2024/04/20 14:09:09;;;;;;;4.07;2.20;;;;;;;;;;5489959;26;19997;-76
2024/04/20 14:11:55;;;;;;;4.43;1.52;;;;;;;;;;5491639;26;20012;-77
2024/04/20 14:14:40;;;;;;;3.47;1.70;;;;;;;;;;5500991;26;20334;-79
2024/04/20 14:17:26;;;;;;;5.50;2.40;;;;;;;;;;5493302;26;20033;-79
2024/04/20 14:20:14;;;;;;;4.05;2.38;;;;;;;;;;5502465;26;20012;-77
2024/04/20 14:22:59;;;;;;;10.80;4.47;;;;;;;;;;5491894;26;20006;-78
2024/04/20 14:25:45;;;;;;;36.70;11.30;;;;;;;;;;5505882;25;20068;-78
2024/04/20 14:28:30;;;;;;;39.90;11.80;;;;;;;;;;5516187;25;20466;-76
2024/04/20 14:31:16;;;;;;;17.33;5.50;;;;;;;;;;5479130;26;19998;-76
2024/04/20 14:34:01;;;;;;;11.57;3.25;;;;;;;;;;5486664;25;20004;-76
2024/04/20 14:36:46;;;;;;;5.80;2.40;;;;;;;;;;5502242;25;20079;-77
2024/04/20 14:39:31;;;;;;;6.55;3.55;;;;;;;;;;5508597;26;20012;-77
2024/04/20 14:42:16;;;;;;;14.40;4.40;;;;;;;;;;5491517;25;19998;-77
2024/04/20 14:45:02;;;;;;;8.38;3.22;;;;;;;;;;5510875;25;20023;-77
2024/04/20 14:47:47;;;;;;;4.22;3.00;;;;;;;;;;5491349;26;20488;-77
2024/04/20 14:50:33;;;;;;;9.20;2.70;;;;;;;;;;5498390;26;19998;-77
2024/04/20 14:53:18;;;;;;;4.80;2.40;;;;;;;;;;5517499;25;19997;-76
2024/04/20 14:56:04;;;;;;;8.15;2.92;;;;;;;;;;5494967;25;20029;-77
2024/04/20 14:58:49;;;;;;;4.22;2.40;;;;;;;;;;5504582;25;20009;-77
2024/04/20 15:01:35;;;;;;;7.40;3.33;;;;;;;;;;5509244;25;20055;-76
2024/04/20 15:04:20;;;;;;;6.40;2.70;;;;;;;;;;5516229;25;20320;-76
2024/04/20 15:07:05;;;;;;;6.82;2.65;;;;;;;;;;5519744;25;20001;-76
2024/04/20 15:09:50;;;;;;;6.22;2.38;;;;;;;;;;5489932;26;20484;-76
2024/04/20 15:12:36;;;;;;;4.53;2.00;;;;;;;;;;5488055;26;20002;-76
2024/04/20 15:15:21;;;;;;;2.90;2.28;;;;;;;;;;5509412;25;20005;-76
2024/04/20 15:18:06;;;;;;;3.40;1.95;;;;;;;;;;5469714;25;20015;-76
2024/04/20 15:20:51;;;;;;;3.05;2.10;;;;;;;;;;5500299;25;20012;-80
2024/04/20 15:23:36;;;;;;;4.10;2.22;;;;;;;;;;5494969;25;20001;-79
2024/04/20 15:26:22;;;;;;;2.95;2.00;;;;;;;;;;5490869;26;20008;-78
2024/04/20 15:29:07;;;;;;;3.17;2.17;;;;;;;;;;5456316;26;20010;-78
2024/04/20 15:31:52;;;;;;;3.53;2.08;;;;;;;;;;5473369;26;20012;-78
2024/04/20 15:34:38;;;;;;;2.90;2.25;;;;;;;;;;5486191;26;20002;-78
2024/04/20 15:37:23;;;;;;;7.20;1.73;;;;;;;;;;5470953;26;20009;-79
2024/04/20 15:40:09;;;;;;;3.35;1.67;;;;;;;;;;5458214;26;19998;-77
2024/04/20 15:42:54;;;;;;;2.67;1.90;;;;;;;;;;5442131;26;20428;-76
2024/04/20 15:45:39;;;;;;;3.25;1.80;;;;;;;;;;5473890;26;20013;-77
2024/04/20 15:48:25;;;;;;;3.80;1.35;;;;;;;;;;5486413;26;20326;-77
2024/04/20 15:51:11;;;;;;;3.95;2.00;;;;;;;;;;5478379;26;20501;-77
2024/04/20 15:53:57;;;;;;;3.25;1.42;;;;;;;;;;5485989;26;19998;-78
2024/04/20 15:56:42;;;;;;;2.00;1.13;;;;;;;;;;5476804;26;20360;-77
2024/04/20 15:59:28;;;;;;;1.63;1.20;;;;;;;;;;5483038;26;19993;-76
2024/04/20 16:02:13;;;;;;;2.17;1.42;;;;;;;;;;5483157;26;20004;-77
2024/04/20 16:04:58;;;;;;;3.25;1.50;;;;;;;;;;5480453;26;20059;-78
2024/04/20 16:07:44;;;;;;;1.95;1.30;;;;;;;;;;5482141;26;20070;-81
2024/04/20 16:10:29;;;;;;;2.05;1.50;;;;;;;;;;5477956;26;20075;-81
2024/04/20 16:13:14;;;;;;;1.85;1.17;;;;;;;;;;5466827;26;20346;-81
2024/04/20 16:16:00;;;;;;;2.03;1.55;;;;;;;;;;5488609;26;19993;-80
2024/04/20 16:18:45;;;;;;;3.55;1.83;;;;;;;;;;5479523;26;20008;-80
2024/04/20 16:21:30;;;;;;;3.35;1.95;;;;;;;;;;5449582;26;19994;-79
2024/04/20 16:24:16;;;;;;;3.58;1.65;;;;;;;;;;5478361;26;19996;-80
2024/04/20 16:27:01;;;;;;;2.50;1.77;;;;;;;;;;5483993;26;19990;-80
2024/04/20 16:29:47;;;;;;;2.20;1.60;;;;;;;;;;5470128;26;19999;-80
2024/04/20 16:32:32;;;;;;;2.53;1.90;;;;;;;;;;5458915;26;19998;-80
2024/04/20 16:35:17;;;;;;;3.33;2.00;;;;;;;;;;5487232;26;20005;-81